Time;durP1;ratioP1;P1;durP2;ratioP2;P2;SDS_P1;SDS_P2;PMS_P1;PMS_P2;Temp;Humidity;BMP_temperature;BMP_pressure;BME280_temperature;BME280_humidity;BME280_pressure;Samples;Min_cycle;Max_cycle;Signal;HPM_P1;HPM_P2
2023/08/11 00:01:02;;;;;;;7.72;5.00;;;;;;;;;;5020530;28;20136;-78
2023/08/11 00:03:30;;;;;;;8.07;5.30;;;;;;;;;;5020992;28;20056;-77
2023/08/11 00:05:57;;;;;;;7.60;5.38;;;;;;;;;;5021815;28;20523;-77
2023/08/11 00:08:24;;;;;;;7.28;4.97;;;;;;;;;;5023784;28;20132;-77
2023/08/11 00:10:52;;;;;;;7.20;4.32;;;;;;;;;;5017290;28;20084;-77
2023/08/11 00:13:18;;;;;;;5.68;3.70;;;;;;;;;;5022976;28;20046;-77
2023/08/11 00:15:45;;;;;;;6.65;4.05;;;;;;;;;;5018264;28;20531;-76
2023/08/11 00:18:11;;;;;;;6.95;4.68;;;;;;;;;;5023036;28;20129;-77
2023/08/11 00:20:39;;;;;;;8.13;5.75;;;;;;;;;;5021808;28;20085;-77
2023/08/11 00:23:06;;;;;;;7.63;5.55;;;;;;;;;;5019611;28;20461;-77
2023/08/11 00:25:33;;;;;;;6.80;4.32;;;;;;;;;;5015942;28;20165;-77
2023/08/11 00:28:00;;;;;;;6.80;4.60;;;;;;;;;;5022369;28;20097;-78
2023/08/11 00:30:27;;;;;;;7.03;4.60;;;;;;;;;;5009562;28;20049;-80
2023/08/11 00:32:54;;;;;;;8.27;5.10;;;;;;;;;;5022145;28;20076;-78
2023/08/11 00:35:21;;;;;;;8.52;4.95;;;;;;;;;;5022916;28;20081;-78
2023/08/11 00:37:50;;;;;;;7.50;5.20;;;;;;;;;;5028329;28;20052;-79
2023/08/11 00:40:16;;;;;;;6.63;4.88;;;;;;;;;;5026590;28;20140;-78
2023/08/11 00:42:43;;;;;;;5.72;4.03;;;;;;;;;;5017023;28;20136;-78
2023/08/11 00:45:10;;;;;;;5.40;3.95;;;;;;;;;;5012613;28;20129;-78
2023/08/11 00:47:41;;;;;;;7.07;4.15;;;;;;;;;;5018269;28;20141;-78
2023/08/11 00:50:09;;;;;;;5.63;4.50;;;;;;;;;;5020750;28;20050;-78
2023/08/11 00:52:36;;;;;;;5.57;4.05;;;;;;;;;;5025298;28;20505;-78
2023/08/11 00:55:05;;;;;;;6.95;4.35;;;;;;;;;;5022396;28;20053;-78
2023/08/11 00:57:39;;;;;;;7.35;4.72;;;;;;;;;;5027877;28;20065;-77
2023/08/11 01:00:11;;;;;;;7.22;4.43;;;;;;;;;;5026135;28;20116;-78
2023/08/11 01:02:40;;;;;;;6.28;4.20;;;;;;;;;;5038871;28;20045;-78
2023/08/11 01:05:08;;;;;;;6.35;4.38;;;;;;;;;;5019005;28;20045;-77
2023/08/11 01:07:40;;;;;;;6.30;4.30;;;;;;;;;;5019286;28;20153;-77
2023/08/11 01:10:16;;;;;;;7.38;4.45;;;;;;;;;;5018879;28;20049;-77
2023/08/11 01:12:51;;;;;;;6.90;4.78;;;;;;;;;;5030495;28;20042;-78
2023/08/11 01:15:21;;;;;;;6.65;4.20;;;;;;;;;;5021825;28;20584;-78
2023/08/11 01:17:50;;;;;;;6.18;4.05;;;;;;;;;;5022185;28;20144;-78
2023/08/11 01:20:18;;;;;;;6.57;3.97;;;;;;;;;;5021540;28;20088;-78
2023/08/11 01:22:47;;;;;;;6.40;3.88;;;;;;;;;;5009904;28;20505;-78
2023/08/11 01:25:15;;;;;;;5.53;3.88;;;;;;;;;;5016065;28;20108;-79
2023/08/11 01:27:45;;;;;;;6.45;3.97;;;;;;;;;;5010765;28;20132;-77
2023/08/11 01:30:14;;;;;;;6.15;4.18;;;;;;;;;;5017262;28;20042;-77
2023/08/11 01:32:41;;;;;;;5.55;4.10;;;;;;;;;;5028708;28;20132;-77
2023/08/11 01:35:09;;;;;;;6.05;4.57;;;;;;;;;;5025435;28;20073;-78
2023/08/11 01:37:36;;;;;;;8.02;4.40;;;;;;;;;;5034258;28;20064;-77
2023/08/11 01:40:05;;;;;;;6.13;3.95;;;;;;;;;;5025480;28;20050;-77
2023/08/11 01:42:33;;;;;;;5.03;3.83;;;;;;;;;;5018920;28;20061;-78
2023/08/11 01:45:00;;;;;;;7.50;4.45;;;;;;;;;;5034151;28;20314;-78
2023/08/11 01:47:27;;;;;;;6.43;4.20;;;;;;;;;;5032600;28;20046;-78
2023/08/11 01:49:54;;;;;;;5.55;4.15;;;;;;;;;;5041002;28;20107;-77
2023/08/11 01:52:22;;;;;;;5.80;3.95;;;;;;;;;;5030895;28;20054;-78
2023/08/11 01:54:49;;;;;;;7.93;5.47;;;;;;;;;;5023221;28;20053;-78
2023/08/11 01:57:17;;;;;;;6.03;4.45;;;;;;;;;;5024085;28;20294;-78
2023/08/11 01:59:45;;;;;;;5.65;4.30;;;;;;;;;;5031019;28;20137;-78
2023/08/11 02:02:11;;;;;;;5.35;4.10;;;;;;;;;;5024270;28;20103;-77
2023/08/11 02:04:38;;;;;;;6.60;4.85;;;;;;;;;;5024914;28;20123;-77
2023/08/11 02:07:05;;;;;;;6.97;4.75;;;;;;;;;;5025518;28;20057;-77
2023/08/11 02:09:32;;;;;;;6.57;4.40;;;;;;;;;;5020475;28;20060;-79
2023/08/11 02:11:59;;;;;;;6.35;4.30;;;;;;;;;;5014039;28;20169;-77
2023/08/11 02:14:25;;;;;;;6.45;4.22;;;;;;;;;;5021659;28;20053;-77
2023/08/11 02:16:53;;;;;;;5.65;3.92;;;;;;;;;;5015581;28;20133;-79
2023/08/11 02:19:20;;;;;;;6.10;4.30;;;;;;;;;;5025044;28;20049;-78
2023/08/11 02:21:47;;;;;;;5.57;4.45;;;;;;;;;;5023905;28;20084;-77
2023/08/11 02:24:14;;;;;;;5.63;3.53;;;;;;;;;;5012672;28;20041;-77
2023/08/11 02:26:41;;;;;;;5.32;3.80;;;;;;;;;;5023223;28;20352;-77
2023/08/11 02:29:08;;;;;;;5.93;3.65;;;;;;;;;;5027209;28;20065;-77
2023/08/11 02:31:35;;;;;;;6.30;4.40;;;;;;;;;;5021149;28;20038;-77
2023/08/11 02:34:03;;;;;;;6.38;3.70;;;;;;;;;;5025526;28;20476;-77
2023/08/11 02:36:30;;;;;;;5.05;3.70;;;;;;;;;;5027732;28;20486;-77
2023/08/11 02:38:57;;;;;;;5.03;3.90;;;;;;;;;;5013947;28;20057;-78
2023/08/11 02:41:25;;;;;;;4.90;3.55;;;;;;;;;;5025379;28;20415;-78
2023/08/11 02:43:52;;;;;;;5.03;3.65;;;;;;;;;;5013795;28;20057;-77
2023/08/11 02:46:19;;;;;;;5.78;3.80;;;;;;;;;;5012941;28;20533;-78
2023/08/11 02:48:45;;;;;;;5.85;4.38;;;;;;;;;;5026666;28;20037;-78
2023/08/11 02:51:13;;;;;;;5.78;3.58;;;;;;;;;;5026308;28;20444;-77
2023/08/11 02:53:40;;;;;;;7.65;4.38;;;;;;;;;;5018617;28;20041;-78
2023/08/11 02:56:09;;;;;;;5.20;3.55;;;;;;;;;;5026322;28;20045;-79
2023/08/11 02:58:35;;;;;;;6.15;4.05;;;;;;;;;;5019707;28;20087;-78
2023/08/11 03:01:03;;;;;;;6.03;3.80;;;;;;;;;;5027863;28;20112;-78
2023/08/11 03:03:30;;;;;;;6.60;4.30;;;;;;;;;;5029958;28;20128;-78
2023/08/11 03:05:57;;;;;;;5.43;3.70;;;;;;;;;;5025080;28;20054;-77
2023/08/11 03:08:25;;;;;;;5.60;3.60;;;;;;;;;;5022377;28;20073;-77
2023/08/11 03:10:52;;;;;;;5.82;3.95;;;;;;;;;;5027282;28;20061;-77
2023/08/11 03:13:19;;;;;;;5.80;4.07;;;;;;;;;;5022299;28;20045;-77
2023/08/11 03:15:45;;;;;;;5.80;4.10;;;;;;;;;;5026465;28;20065;-77
2023/08/11 03:18:12;;;;;;;6.15;3.85;;;;;;;;;;5020676;28;20545;-78
2023/08/11 03:20:39;;;;;;;6.90;4.13;;;;;;;;;;5015546;28;20077;-77
2023/08/11 03:23:06;;;;;;;5.13;3.65;;;;;;;;;;5025547;28;20046;-77
2023/08/11 03:25:34;;;;;;;6.43;4.00;;;;;;;;;;5031518;28;20045;-78
2023/08/11 03:28:01;;;;;;;5.32;3.83;;;;;;;;;;5017358;28;20133;-77
2023/08/11 03:30:27;;;;;;;5.80;3.75;;;;;;;;;;5031066;28;20069;-77
2023/08/11 03:32:54;;;;;;;5.90;4.10;;;;;;;;;;5018342;28;20131;-79
2023/08/11 03:35:21;;;;;;;5.55;3.78;;;;;;;;;;5040903;28;20128;-78
2023/08/11 03:37:48;;;;;;;6.15;4.15;;;;;;;;;;5031701;28;20061;-78
2023/08/11 03:40:16;;;;;;;5.97;4.25;;;;;;;;;;5019211;28;20050;-77
2023/08/11 03:42:44;;;;;;;5.18;3.63;;;;;;;;;;5015036;28;20049;-76
2023/08/11 03:45:13;;;;;;;6.18;3.95;;;;;;;;;;5026102;28;20081;-75
2023/08/11 03:47:40;;;;;;;5.22;3.90;;;;;;;;;;5023274;28;20316;-77
2023/08/11 03:50:08;;;;;;;5.20;3.75;;;;;;;;;;5011260;28;20317;-78
2023/08/11 03:52:35;;;;;;;6.68;3.97;;;;;;;;;;5023306;28;20048;-78
2023/08/11 03:55:01;;;;;;;5.75;4.20;;;;;;;;;;5034825;28;20570;-78
2023/08/11 03:57:28;;;;;;;6.82;4.32;;;;;;;;;;5020335;28;20085;-78
2023/08/11 03:59:56;;;;;;;7.15;4.40;;;;;;;;;;5018283;28;20161;-76
2023/08/11 04:02:23;;;;;;;6.65;4.80;;;;;;;;;;5010052;28;20128;-78
2023/08/11 04:04:49;;;;;;;8.00;4.53;;;;;;;;;;5014854;28;20149;-77
2023/08/11 04:07:16;;;;;;;7.47;4.90;;;;;;;;;;5024199;28;20235;-77
2023/08/11 04:09:46;;;;;;;6.88;5.38;;;;;;;;;;5023541;28;20038;-76
2023/08/11 04:12:13;;;;;;;7.22;5.13;;;;;;;;;;5016039;28;20366;-77
2023/08/11 04:14:39;;;;;;;7.40;5.80;;;;;;;;;;5018310;28;20137;-76
2023/08/11 04:17:07;;;;;;;7.05;5.72;;;;;;;;;;5017501;28;20492;-77
2023/08/11 04:19:34;;;;;;;6.97;5.22;;;;;;;;;;5008397;28;20061;-77
2023/08/11 04:22:01;;;;;;;7.95;5.63;;;;;;;;;;5017170;28;20801;-77
2023/08/11 04:24:27;;;;;;;7.93;5.63;;;;;;;;;;5013591;28;20136;-77
2023/08/11 04:26:54;;;;;;;8.30;6.03;;;;;;;;;;5008250;28;20074;-77
2023/08/11 04:29:21;;;;;;;7.90;5.70;;;;;;;;;;5013076;28;20049;-77
2023/08/11 04:31:47;;;;;;;7.13;6.03;;;;;;;;;;5020143;28;20092;-76
2023/08/11 04:34:16;;;;;;;7.45;4.75;;;;;;;;;;5020749;28;20482;-76
2023/08/11 04:36:42;;;;;;;7.03;4.85;;;;;;;;;;5013464;28;20045;-77
2023/08/11 04:39:10;;;;;;;6.88;4.72;;;;;;;;;;5023838;28;20046;-77
2023/08/11 04:41:37;;;;;;;6.97;4.40;;;;;;;;;;5019441;28;20050;-78
2023/08/11 04:44:04;;;;;;;6.38;4.72;;;;;;;;;;5009837;28;20133;-77
2023/08/11 04:46:32;;;;;;;7.47;4.00;;;;;;;;;;5014583;28;20050;-77
2023/08/11 04:48:58;;;;;;;6.53;3.85;;;;;;;;;;5028587;28;20132;-77
2023/08/11 04:51:26;;;;;;;6.40;4.90;;;;;;;;;;5017862;28;20527;-77
2023/08/11 04:53:54;;;;;;;6.90;4.43;;;;;;;;;;5017324;28;20076;-76
2023/08/11 04:56:21;;;;;;;7.97;4.85;;;;;;;;;;5009434;28;20460;-77
2023/08/11 04:58:47;;;;;;;5.60;4.00;;;;;;;;;;5015729;28;20058;-77
2023/08/11 05:01:14;;;;;;;5.80;4.18;;;;;;;;;;5008145;28;20140;-77
2023/08/11 05:03:41;;;;;;;6.78;4.57;;;;;;;;;;5008525;28;20113;-77
2023/08/11 05:06:08;;;;;;;7.13;5.22;;;;;;;;;;5025834;28;20477;-77
2023/08/11 05:08:37;;;;;;;7.28;5.18;;;;;;;;;;5025564;28;20046;-77
2023/08/11 05:11:04;;;;;;;6.85;4.93;;;;;;;;;;5031026;28;20052;-77
2023/08/11 05:13:31;;;;;;;7.57;4.72;;;;;;;;;;5027466;28;20045;-77
2023/08/11 05:15:57;;;;;;;7.80;5.53;;;;;;;;;;5030568;28;20050;-77
2023/08/11 05:18:24;;;;;;;6.47;5.38;;;;;;;;;;5013193;28;20054;-77
2023/08/11 05:20:50;;;;;;;7.78;5.32;;;;;;;;;;5026828;28;20053;-77
2023/08/11 05:23:18;;;;;;;7.72;5.28;;;;;;;;;;5024485;28;20053;-77
2023/08/11 05:25:46;;;;;;;7.30;5.00;;;;;;;;;;5017073;28;20057;-77
2023/08/11 05:28:13;;;;;;;7.30;4.82;;;;;;;;;;5027483;28;20053;-76
2023/08/11 05:30:39;;;;;;;7.53;4.80;;;;;;;;;;5013492;28;20050;-78
2023/08/11 05:33:06;;;;;;;6.40;4.63;;;;;;;;;;5043608;22;20048;-78
2023/08/11 05:35:33;;;;;;;6.50;4.45;;;;;;;;;;5038249;28;20124;-80
2023/08/11 05:38:01;;;;;;;6.78;4.60;;;;;;;;;;5043622;28;20105;-80
2023/08/11 05:40:28;;;;;;;6.75;4.45;;;;;;;;;;5045955;28;20057;-79
2023/08/11 05:42:56;;;;;;;6.43;4.40;;;;;;;;;;5033278;28;20042;-79
2023/08/11 05:45:23;;;;;;;6.65;5.07;;;;;;;;;;5027959;28;20531;-79
2023/08/11 05:47:50;;;;;;;6.97;4.47;;;;;;;;;;5036872;28;20103;-79
2023/08/11 05:50:16;;;;;;;6.00;4.70;;;;;;;;;;5016908;28;20571;-78
2023/08/11 05:52:43;;;;;;;6.68;4.80;;;;;;;;;;5016038;28;20076;-78
2023/08/11 05:55:10;;;;;;;6.65;4.53;;;;;;;;;;5025613;28;20133;-78
2023/08/11 05:57:36;;;;;;;6.45;4.88;;;;;;;;;;5018562;28;20153;-78
2023/08/11 06:00:08;;;;;;;6.78;4.72;;;;;;;;;;5018473;28;20064;-80
2023/08/11 06:02:35;;;;;;;6.28;5.13;;;;;;;;;;5009787;28;20541;-78
2023/08/11 06:05:02;;;;;;;7.50;4.78;;;;;;;;;;5026787;28;20428;-78
2023/08/11 06:07:29;;;;;;;7.15;4.47;;;;;;;;;;5022190;28;20073;-78
2023/08/11 06:09:56;;;;;;;6.05;4.25;;;;;;;;;;5034444;28;20048;-79
2023/08/11 06:12:24;;;;;;;7.93;4.57;;;;;;;;;;5046199;28;20046;-79
2023/08/11 06:14:50;;;;;;;7.80;4.72;;;;;;;;;;5035805;28;20053;-78
2023/08/11 06:17:18;;;;;;;7.15;4.55;;;;;;;;;;5046725;28;20052;-79
2023/08/11 06:19:45;;;;;;;5.88;4.57;;;;;;;;;;5037819;28;20065;-80
2023/08/11 06:22:12;;;;;;;6.10;4.25;;;;;;;;;;5025293;28;20084;-79
2023/08/11 06:24:38;;;;;;;6.57;4.00;;;;;;;;;;5031275;28;20062;-79
2023/08/11 06:27:06;;;;;;;6.93;4.20;;;;;;;;;;5033001;28;20064;-78
2023/08/11 06:29:32;;;;;;;6.80;4.40;;;;;;;;;;5032421;28;20038;-80
2023/08/11 06:31:59;;;;;;;7.40;4.15;;;;;;;;;;5037445;28;20052;-80
2023/08/11 06:34:27;;;;;;;6.80;4.65;;;;;;;;;;5038580;28;20072;-79
2023/08/11 06:36:54;;;;;;;7.45;4.68;;;;;;;;;;5029293;28;20481;-79
2023/08/11 06:39:21;;;;;;;8.27;4.18;;;;;;;;;;5023986;28;20054;-79
2023/08/11 06:41:48;;;;;;;6.38;4.40;;;;;;;;;;5007021;28;20045;-78
2023/08/11 06:44:15;;;;;;;6.15;3.97;;;;;;;;;;5011593;28;20037;-79
2023/08/11 06:46:43;;;;;;;6.80;4.55;;;;;;;;;;5021641;28;20416;-80
2023/08/11 06:49:09;;;;;;;6.07;3.88;;;;;;;;;;5013994;28;20547;-79
2023/08/11 06:51:37;;;;;;;5.93;4.20;;;;;;;;;;5016159;28;20077;-78
2023/08/11 06:54:05;;;;;;;6.05;3.88;;;;;;;;;;5015060;28;20069;-79
2023/08/11 06:56:31;;;;;;;5.60;3.53;;;;;;;;;;5008155;28;20077;-79
2023/08/11 06:58:58;;;;;;;6.20;3.88;;;;;;;;;;5008669;28;20046;-79
2023/08/11 07:01:27;;;;;;;5.18;3.95;;;;;;;;;;5014093;28;20061;-79
2023/08/11 07:03:54;;;;;;;5.45;3.88;;;;;;;;;;5014132;28;20053;-84
2023/08/11 07:06:20;;;;;;;6.10;3.63;;;;;;;;;;5015149;28;20103;-80
2023/08/11 07:08:51;;;;;;;6.25;3.65;;;;;;;;;;5021373;28;20060;-80
2023/08/11 07:11:17;;;;;;;6.30;3.92;;;;;;;;;;5015230;28;20045;-80
2023/08/11 07:13:44;;;;;;;5.68;4.10;;;;;;;;;;5024627;28;20060;-79
2023/08/11 07:16:11;;;;;;;8.38;4.28;;;;;;;;;;5026157;28;20052;-80
2023/08/11 07:18:41;;;;;;;5.95;3.88;;;;;;;;;;5021752;28;20479;-79
2023/08/11 07:21:08;;;;;;;6.77;4.30;;;;;;;;;;5017465;28;20334;-80
2023/08/11 07:23:34;;;;;;;5.40;3.97;;;;;;;;;;5021353;28;20493;-81
2023/08/11 07:26:02;;;;;;;5.57;4.05;;;;;;;;;;5019780;28;20046;-80
2023/08/11 07:28:31;;;;;;;6.07;4.20;;;;;;;;;;5025299;28;20096;-81
2023/08/11 07:30:58;;;;;;;7.10;4.53;;;;;;;;;;5027095;28;20301;-79
2023/08/11 07:33:25;;;;;;;6.55;4.25;;;;;;;;;;5027445;28;20085;-79
2023/08/11 07:35:51;;;;;;;5.50;4.20;;;;;;;;;;5017150;28;20044;-79
2023/08/11 07:38:20;;;;;;;5.97;3.70;;;;;;;;;;5017336;28;20137;-78
2023/08/11 07:40:47;;;;;;;6.65;3.97;;;;;;;;;;5016633;28;20077;-79
2023/08/11 07:43:15;;;;;;;6.28;4.60;;;;;;;;;;5013129;28;20541;-79
2023/08/11 07:45:42;;;;;;;5.60;3.92;;;;;;;;;;5017625;28;20706;-79
2023/08/11 07:48:08;;;;;;;6.13;4.13;;;;;;;;;;5016733;28;20065;-79
2023/08/11 07:50:36;;;;;;;6.13;4.25;;;;;;;;;;5013805;28;20061;-79
2023/08/11 07:53:07;;;;;;;5.72;4.07;;;;;;;;;;5013007;28;20057;-77
2023/08/11 07:55:33;;;;;;;6.20;4.07;;;;;;;;;;5013540;28;20045;-81
2023/08/11 07:58:00;;;;;;;6.70;3.97;;;;;;;;;;5017444;28;20077;-79
2023/08/11 08:00:28;;;;;;;6.35;4.20;;;;;;;;;;5014648;28;20054;-79
2023/08/11 08:02:55;;;;;;;6.18;3.72;;;;;;;;;;5021317;28;20092;-80
2023/08/11 08:05:23;;;;;;;8.38;4.15;;;;;;;;;;5015921;28;20050;-81
2023/08/11 08:07:50;;;;;;;6.07;3.55;;;;;;;;;;5016337;28;20080;-81
2023/08/11 08:10:20;;;;;;;5.05;3.42;;;;;;;;;;5026163;28;20041;-79
2023/08/11 08:12:46;;;;;;;4.60;3.33;;;;;;;;;;5035033;28;20037;-81
2023/08/11 08:15:14;;;;;;;8.25;4.10;;;;;;;;;;5021235;28;20121;-79
2023/08/11 08:17:42;;;;;;;5.38;3.50;;;;;;;;;;5024261;28;20045;-81
2023/08/11 08:20:13;;;;;;;5.38;3.47;;;;;;;;;;5031866;28;20049;-79
2023/08/11 08:22:40;;;;;;;9.10;3.65;;;;;;;;;;5025296;28;20496;-79
2023/08/11 08:25:08;;;;;;;7.25;4.15;;;;;;;;;;5028081;28;20095;-79
2023/08/11 08:27:35;;;;;;;5.57;3.25;;;;;;;;;;5029073;28;20041;-80
2023/08/11 08:30:02;;;;;;;5.07;3.65;;;;;;;;;;5032171;28;20038;-80
2023/08/11 08:32:29;;;;;;;4.70;2.95;;;;;;;;;;5037413;28;20332;-80
2023/08/11 08:34:57;;;;;;;5.03;3.50;;;;;;;;;;5018802;28;20038;-79
2023/08/11 08:37:24;;;;;;;5.38;3.80;;;;;;;;;;5015941;28;20294;-80
2023/08/11 08:39:51;;;;;;;4.78;3.20;;;;;;;;;;5026416;28;20061;-80
2023/08/11 08:42:19;;;;;;;5.25;3.80;;;;;;;;;;5033584;28;20141;-80
2023/08/11 08:44:49;;;;;;;5.57;3.90;;;;;;;;;;5020665;28;20089;-80
2023/08/11 08:47:19;;;;;;;5.95;3.70;;;;;;;;;;5024845;28;20068;-80
2023/08/11 08:49:46;;;;;;;5.03;3.60;;;;;;;;;;5027852;28;20088;-79
2023/08/11 08:52:16;;;;;;;7.43;3.88;;;;;;;;;;5022574;28;20069;-78
2023/08/11 08:54:43;;;;;;;6.55;4.25;;;;;;;;;;5028701;28;20046;-78
2023/08/11 08:57:11;;;;;;;5.53;3.60;;;;;;;;;;5029097;28;20045;-80
2023/08/11 08:59:38;;;;;;;5.10;3.30;;;;;;;;;;5037571;28;20109;-79
2023/08/11 09:02:06;;;;;;;4.05;2.95;;;;;;;;;;5036965;28;20053;-79
2023/08/11 09:04:33;;;;;;;6.13;3.58;;;;;;;;;;5021527;28;20125;-80
2023/08/11 09:07:01;;;;;;;4.82;3.28;;;;;;;;;;5024547;28;20404;-78
2023/08/11 09:09:29;;;;;;;6.50;3.60;;;;;;;;;;5030646;28;20046;-80
2023/08/11 09:11:57;;;;;;;5.78;3.60;;;;;;;;;;5029342;28;20057;-79
2023/08/11 09:14:24;;;;;;;5.13;4.18;;;;;;;;;;5028394;28;20042;-79
2023/08/11 09:16:52;;;;;;;6.38;3.70;;;;;;;;;;5033753;28;20052;-81
2023/08/11 09:19:19;;;;;;;5.55;4.05;;;;;;;;;;5023697;28;20111;-80
2023/08/11 09:21:46;;;;;;;5.20;3.65;;;;;;;;;;5030157;28;20038;-79
2023/08/11 09:24:13;;;;;;;5.55;3.40;;;;;;;;;;5031625;28;20045;-80
2023/08/11 09:26:44;;;;;;;5.20;3.33;;;;;;;;;;5034184;28;20073;-79
2023/08/11 09:29:11;;;;;;;4.72;3.20;;;;;;;;;;5039010;28;20045;-78
2023/08/11 09:31:39;;;;;;;4.75;3.20;;;;;;;;;;5025929;28;20484;-80
2023/08/11 09:34:14;;;;;;;5.05;3.42;;;;;;;;;;5024456;28;20108;-80
2023/08/11 09:36:41;;;;;;;5.22;3.30;;;;;;;;;;5025015;28;20113;-79
2023/08/11 09:39:08;;;;;;;5.10;3.17;;;;;;;;;;5031757;28;20041;-79
2023/08/11 09:41:41;;;;;;;5.60;3.55;;;;;;;;;;5027227;28;20523;-80
2023/08/11 09:44:10;;;;;;;5.32;3.10;;;;;;;;;;5031179;28;20080;-79
2023/08/11 09:46:38;;;;;;;4.65;2.97;;;;;;;;;;5030035;28;20103;-79
2023/08/11 09:49:05;;;;;;;5.25;2.75;;;;;;;;;;5040081;28;20140;-79
2023/08/11 09:51:35;;;;;;;5.30;3.30;;;;;;;;;;5035651;28;20065;-79
2023/08/11 09:54:05;;;;;;;4.90;3.13;;;;;;;;;;5024827;28;20068;-79
2023/08/11 09:56:33;;;;;;;4.22;2.88;;;;;;;;;;5020810;28;20054;-79
2023/08/11 09:59:03;;;;;;;4.50;2.85;;;;;;;;;;5027159;28;20191;-79
2023/08/11 10:01:34;;;;;;;7.10;3.58;;;;;;;;;;5031174;28;20054;-79
2023/08/11 10:04:07;;;;;;;5.03;3.20;;;;;;;;;;5033372;28;20061;-80
2023/08/11 10:06:36;;;;;;;5.35;3.33;;;;;;;;;;5032889;28;20075;-79
2023/08/11 10:09:04;;;;;;;4.82;2.95;;;;;;;;;;5022065;28;20046;-79
2023/08/11 10:11:35;;;;;;;6.75;3.42;;;;;;;;;;5018997;28;20038;-79
2023/08/11 10:14:04;;;;;;;5.43;3.85;;;;;;;;;;5017529;28;20408;-80
2023/08/11 10:16:33;;;;;;;4.32;3.17;;;;;;;;;;5020834;28;20057;-80
2023/08/11 10:19:01;;;;;;;4.53;3.08;;;;;;;;;;5020101;28;20054;-78
2023/08/11 10:21:28;;;;;;;4.13;2.83;;;;;;;;;;5020571;28;20125;-80
2023/08/11 10:23:55;;;;;;;5.03;2.95;;;;;;;;;;5014870;28;20062;-79
2023/08/11 10:26:24;;;;;;;5.35;3.40;;;;;;;;;;5023630;28;20050;-80
2023/08/11 10:28:52;;;;;;;6.80;3.45;;;;;;;;;;5022153;28;20042;-80
2023/08/11 10:31:18;;;;;;;5.15;3.28;;;;;;;;;;5024661;28;20062;-79
2023/08/11 10:33:54;;;;;;;5.95;3.35;;;;;;;;;;5019481;28;20073;-78
2023/08/11 10:36:24;;;;;;;6.30;3.42;;;;;;;;;;5012362;28;20052;-79
2023/08/11 10:39:02;;;;;;;8.77;4.47;;;;;;;;;;5018522;28;20056;-79
2023/08/11 10:41:29;;;;;;;5.70;3.80;;;;;;;;;;5024943;28;20076;-79
2023/08/11 10:43:56;;;;;;;5.00;3.30;;;;;;;;;;5024723;28;20037;-80
2023/08/11 10:46:26;;;;;;;5.68;3.35;;;;;;;;;;5024086;28;20084;-80
2023/08/11 10:48:55;;;;;;;5.33;3.47;;;;;;;;;;5019636;28;20053;-80
2023/08/11 10:51:39;;;;;;;5.70;3.30;;;;;;;;;;5026965;28;20313;-80
2023/08/11 10:54:11;;;;;;;4.75;3.05;;;;;;;;;;5020304;28;20053;-79
2023/08/11 10:56:39;;;;;;;4.95;3.35;;;;;;;;;;5019796;28;20046;-78
2023/08/11 10:59:08;;;;;;;4.25;3.15;;;;;;;;;;5018275;28;20144;-80
2023/08/11 11:01:35;;;;;;;5.28;3.40;;;;;;;;;;5018910;28;20358;-79
2023/08/11 11:04:04;;;;;;;4.28;3.15;;;;;;;;;;5017206;28;20062;-79
2023/08/11 11:06:31;;;;;;;4.72;3.55;;;;;;;;;;5013998;28;20049;-80
2023/08/11 11:08:58;;;;;;;4.97;3.60;;;;;;;;;;5015998;28;20052;-79
2023/08/11 11:11:25;;;;;;;4.90;3.30;;;;;;;;;;5013335;28;20045;-79
2023/08/11 11:13:52;;;;;;;4.25;2.97;;;;;;;;;;5013438;28;20463;-79
2023/08/11 11:16:19;;;;;;;4.80;3.30;;;;;;;;;;5016726;28;20096;-79
2023/08/11 11:18:47;;;;;;;4.10;3.22;;;;;;;;;;5026293;28;20076;-79
2023/08/11 11:21:15;;;;;;;5.50;3.50;;;;;;;;;;5029560;28;20073;-79
2023/08/11 11:23:45;;;;;;;5.20;3.70;;;;;;;;;;5030643;28;20146;-78
2023/08/11 11:26:11;;;;;;;7.07;4.10;;;;;;;;;;5023021;28;20066;-79
2023/08/11 11:28:38;;;;;;;5.30;3.65;;;;;;;;;;5026535;28;20072;-80
2023/08/11 11:31:06;;;;;;;5.50;3.55;;;;;;;;;;5018780;28;20065;-80
2023/08/11 11:33:33;;;;;;;5.57;3.25;;;;;;;;;;5024401;28;20054;-79
2023/08/11 11:35:59;;;;;;;4.97;3.20;;;;;;;;;;5051261;28;20030;-80
2023/08/11 11:38:28;;;;;;;5.20;3.55;;;;;;;;;;5040216;28;20076;-79
2023/08/11 11:40:54;;;;;;;4.82;3.10;;;;;;;;;;5022061;28;20504;-80
2023/08/11 11:43:21;;;;;;;4.45;3.10;;;;;;;;;;5029998;28;20049;-80
2023/08/11 11:45:50;;;;;;;5.70;3.53;;;;;;;;;;5029448;28;20045;-79
2023/08/11 11:48:17;;;;;;;4.18;2.83;;;;;;;;;;5019975;28;20149;-80
2023/08/11 11:50:44;;;;;;;5.40;2.90;;;;;;;;;;5022122;28;20509;-79
2023/08/11 11:53:11;;;;;;;5.15;3.20;;;;;;;;;;5029067;28;20129;-78
2023/08/11 11:55:45;;;;;;;4.47;3.10;;;;;;;;;;5018780;28;20057;-80
2023/08/11 11:58:12;;;;;;;4.93;3.47;;;;;;;;;;5024356;28;20049;-79
2023/08/11 12:00:39;;;;;;;4.93;3.35;;;;;;;;;;5032178;28;20049;-80
2023/08/11 12:03:07;;;;;;;4.18;2.92;;;;;;;;;;5031150;28;20059;-80
2023/08/11 12:05:33;;;;;;;7.95;3.40;;;;;;;;;;5028683;28;20353;-80
2023/08/11 12:08:00;;;;;;;4.82;2.90;;;;;;;;;;5033918;28;20041;-80
2023/08/11 12:10:34;;;;;;;5.13;3.30;;;;;;;;;;5037634;28;20045;-81
2023/08/11 12:13:03;;;;;;;4.38;3.10;;;;;;;;;;5019519;28;20046;-79
2023/08/11 12:15:32;;;;;;;4.97;2.70;;;;;;;;;;5032806;28;20056;-80
2023/08/11 12:17:59;;;;;;;4.85;3.05;;;;;;;;;;5026238;28;20034;-80
2023/08/11 12:20:26;;;;;;;4.57;2.90;;;;;;;;;;5029920;28;20500;-81
2023/08/11 12:22:52;;;;;;;4.25;2.78;;;;;;;;;;5028169;28;20050;-81
2023/08/11 12:25:19;;;;;;;4.47;3.08;;;;;;;;;;5037279;28;20069;-80
2023/08/11 12:27:48;;;;;;;4.38;3.03;;;;;;;;;;5025324;28;20053;-81
2023/08/11 12:30:18;;;;;;;4.68;3.00;;;;;;;;;;5017064;28;20052;-80
2023/08/11 12:32:44;;;;;;;4.80;2.72;;;;;;;;;;5017342;28;20110;-80
2023/08/11 12:35:11;;;;;;;4.45;2.70;;;;;;;;;;5025290;28;20081;-80
2023/08/11 12:37:38;;;;;;;4.82;3.00;;;;;;;;;;5025485;28;20097;-80
2023/08/11 12:40:09;;;;;;;4.80;3.00;;;;;;;;;;5026077;28;20041;-79
2023/08/11 12:42:36;;;;;;;4.20;2.53;;;;;;;;;;5020511;28;20049;-79
2023/08/11 12:45:03;;;;;;;4.60;3.00;;;;;;;;;;5025343;28;20050;-79
2023/08/11 12:47:31;;;;;;;4.43;2.80;;;;;;;;;;5026399;28;20049;-78
2023/08/11 12:49:58;;;;;;;4.82;2.70;;;;;;;;;;5036978;28;20069;-80
2023/08/11 12:52:25;;;;;;;3.60;2.50;;;;;;;;;;5034392;28;20049;-79
2023/08/11 12:54:51;;;;;;;4.60;3.00;;;;;;;;;;5027777;28;20551;-80
2023/08/11 12:57:18;;;;;;;4.28;2.70;;;;;;;;;;5016829;28;20076;-80
2023/08/11 12:59:45;;;;;;;4.20;2.53;;;;;;;;;;5022557;28;20045;-81
2023/08/11 13:02:11;;;;;;;4.13;2.88;;;;;;;;;;5031194;28;20077;-81
2023/08/11 13:04:39;;;;;;;3.50;2.70;;;;;;;;;;5011685;28;20054;-78
2023/08/11 13:07:06;;;;;;;4.03;2.70;;;;;;;;;;5002339;28;20050;-80
2023/08/11 13:09:33;;;;;;;5.93;2.85;;;;;;;;;;4998237;28;20066;-78
2023/08/11 13:11:59;;;;;;;3.72;2.50;;;;;;;;;;4998430;28;20419;-78
2023/08/11 13:14:26;;;;;;;6.05;2.80;;;;;;;;;;4999904;28;20058;-78
2023/08/11 13:16:53;;;;;;;4.10;2.35;;;;;;;;;;4997569;28;20129;-78
2023/08/11 13:19:19;;;;;;;3.67;2.50;;;;;;;;;;5025537;28;20052;-79
2023/08/11 13:21:47;;;;;;;4.40;2.58;;;;;;;;;;5019920;28;20145;-79
2023/08/11 13:24:14;;;;;;;4.82;2.40;;;;;;;;;;5013753;28;20061;-79
2023/08/11 13:26:41;;;;;;;3.67;2.72;;;;;;;;;;5020659;28;20065;-78
2023/08/11 13:29:07;;;;;;;4.40;2.65;;;;;;;;;;5014137;28;20160;-80
2023/08/11 13:31:34;;;;;;;3.95;2.53;;;;;;;;;;5015257;28;20136;-79
2023/08/11 13:34:01;;;;;;;5.63;2.72;;;;;;;;;;5023977;28;20065;-79
2023/08/11 13:36:27;;;;;;;3.55;2.60;;;;;;;;;;5016635;28;20061;-78
2023/08/11 13:38:55;;;;;;;4.25;2.90;;;;;;;;;;5017713;28;20071;-79
2023/08/11 13:41:22;;;;;;;4.28;3.10;;;;;;;;;;5016433;28;20407;-79
2023/08/11 13:43:48;;;;;;;4.50;2.65;;;;;;;;;;5009647;28;20568;-78
2023/08/11 13:46:16;;;;;;;4.10;2.45;;;;;;;;;;5012966;28;20129;-78
2023/08/11 13:48:43;;;;;;;4.32;2.60;;;;;;;;;;5017965;28;20089;-79
2023/08/11 13:51:09;;;;;;;4.30;2.88;;;;;;;;;;4999789;28;20109;-77
2023/08/11 13:53:36;;;;;;;3.35;2.42;;;;;;;;;;5018715;28;20064;-78
2023/08/11 13:56:04;;;;;;;3.92;2.40;;;;;;;;;;5031052;28;20548;-78
2023/08/11 13:58:31;;;;;;;4.15;2.13;;;;;;;;;;5013051;28;20139;-79
2023/08/11 14:00:57;;;;;;;4.22;2.50;;;;;;;;;;5018610;28;20065;-79
2023/08/11 14:03:24;;;;;;;3.70;2.28;;;;;;;;;;5018417;28;20061;-77
2023/08/11 14:05:51;;;;;;;4.38;2.72;;;;;;;;;;5017195;28;20497;-79
2023/08/11 14:08:19;;;;;;;3.90;2.42;;;;;;;;;;5019274;28;20085;-80
2023/08/11 14:10:46;;;;;;;3.00;2.20;;;;;;;;;;5017219;28;20045;-79
2023/08/11 14:13:14;;;;;;;3.38;2.28;;;;;;;;;;5016988;28;20164;-79
2023/08/11 14:15:41;;;;;;;4.20;2.40;;;;;;;;;;5023412;28;20052;-79
2023/08/11 14:18:08;;;;;;;4.57;2.95;;;;;;;;;;5018128;28;20434;-80
2023/08/11 14:20:35;;;;;;;4.43;2.67;;;;;;;;;;5017306;28;20050;-79
2023/08/11 14:23:01;;;;;;;4.75;2.88;;;;;;;;;;5018851;28;20180;-79
2023/08/11 14:25:28;;;;;;;3.80;2.65;;;;;;;;;;5018383;28;20053;-79
2023/08/11 14:27:54;;;;;;;4.28;2.78;;;;;;;;;;5021220;28;20062;-80
2023/08/11 14:30:22;;;;;;;5.07;2.53;;;;;;;;;;5023057;28;20053;-79
2023/08/11 14:32:49;;;;;;;5.07;2.70;;;;;;;;;;5012699;28;20050;-79
2023/08/11 14:35:16;;;;;;;4.15;2.60;;;;;;;;;;5019626;28;20137;-79
2023/08/11 14:37:42;;;;;;;3.80;2.97;;;;;;;;;;5018433;28;20105;-80
2023/08/11 14:40:10;;;;;;;3.58;2.25;;;;;;;;;;5018967;28;20052;-78
2023/08/11 14:42:36;;;;;;;4.00;2.70;;;;;;;;;;5017676;28;20378;-80
2023/08/11 14:45:04;;;;;;;4.10;2.70;;;;;;;;;;5019304;28;20060;-77